ACA1025 KFLL-CYYZ
Flight info
| Callsign | ACA1025 |
|---|---|
| Flight time | N/A |
| Altitude | 37000 |
| Route | AGERS1 DUCEN/N0480F390 Q87 VIYAP Q69 RICCS DCT OXMAN LINNG3 |
| Aircraft | B77W/H-SDE1E2E3FGHIJ2J3J4J5M1RWXY/LB1D1 |
Departure
| Time | 2026-05-03 22:47 |
|---|---|
| Airport | Fort Lauderdale Hollywood International Airport (KFLL) |
Arrival
| Time | N/A |
|---|---|
| Airport | Toronto Pearson International Airport (CYYZ) |
| Time | Latitude | Longitude | Altitude | Speed | Heading |
|---|---|---|---|---|---|
| 2026-05-03 21:24 | 26.07387 | -80.14253 | 78 ft | 0 kts | 244° |
| 2026-05-03 21:39 | 26.07395 | -80.14234 | 79 ft | 3 kts | 245° |
| 2026-05-03 21:40 | 26.07403 | -80.14211 | 79 ft | 4 kts | 276° |
| 2026-05-03 21:40 | 26.07401 | -80.14197 | 79 ft | 4 kts | 325° |
| 2026-05-03 21:40 | 26.07383 | -80.14190 | 79 ft | 4 kts | 357° |
| 2026-05-03 21:40 | 26.07357 | -80.14190 | 79 ft | 4 kts | 1° |
| 2026-05-03 21:41 | 26.07342 | -80.14190 | 79 ft | 1 kts | 1° |
| 2026-05-03 21:41 | 26.07341 | -80.14190 | 79 ft | 0 kts | 1° |
| 2026-05-03 21:43 | 26.07354 | -80.14190 | 79 ft | 0 kts | 360° |
| 2026-05-03 21:44 | 26.07364 | -80.14190 | 79 ft | 2 kts | 360° |
| 2026-05-03 21:44 | 26.07374 | -80.14190 | 79 ft | 1 kts | 360° |
| 2026-05-03 21:44 | 26.07381 | -80.14190 | 79 ft | 1 kts | 360° |
| 2026-05-03 21:45 | 26.07386 | -80.14190 | 79 ft | 0 kts | 360° |
| 2026-05-03 21:45 | 26.07395 | -80.14190 | 79 ft | 3 kts | 360° |
| 2026-05-03 21:45 | 26.07410 | -80.14190 | 79 ft | 0 kts | 360° |
| 2026-05-03 21:52 | 26.07417 | -80.14190 | 79 ft | 4 kts | 0° |
| 2026-05-03 21:52 | 26.07462 | -80.14204 | 79 ft | 8 kts | 320° |
| 2026-05-03 21:53 | 26.07481 | -80.14263 | 79 ft | 8 kts | 278° |
| 2026-05-03 21:53 | 26.07484 | -80.14325 | 79 ft | 8 kts | 270° |
| 2026-05-03 21:53 | 26.07485 | -80.14406 | 79 ft | 11 kts | 270° |
| 2026-05-03 21:53 | 26.07486 | -80.14489 | 79 ft | 10 kts | 270° |
| 2026-05-03 21:54 | 26.07487 | -80.14566 | 79 ft | 10 kts | 270° |
| 2026-05-03 21:54 | 26.07487 | -80.14643 | 79 ft | 10 kts | 270° |
| 2026-05-03 21:54 | 26.07487 | -80.14719 | 79 ft | 10 kts | 270° |
| 2026-05-03 21:54 | 26.07487 | -80.14791 | 79 ft | 9 kts | 270° |
| 2026-05-03 21:55 | 26.07488 | -80.14859 | 79 ft | 9 kts | 270° |
| 2026-05-03 21:55 | 26.07488 | -80.14924 | 79 ft | 8 kts | 270° |
| 2026-05-03 21:55 | 26.07488 | -80.14965 | 79 ft | 8 kts | 271° |
| 2026-05-03 21:55 | 26.07489 | -80.15044 | 79 ft | 13 kts | 271° |
| 2026-05-03 21:56 | 26.07492 | -80.15161 | 79 ft | 17 kts | 270° |
| 2026-05-03 21:56 | 26.07491 | -80.15287 | 79 ft | 16 kts | 269° |
| 2026-05-03 21:56 | 26.07491 | -80.15405 | 79 ft | 15 kts | 269° |
| 2026-05-03 21:56 | 26.07490 | -80.15516 | 79 ft | 14 kts | 270° |
| 2026-05-03 21:57 | 26.07491 | -80.15620 | 79 ft | 13 kts | 270° |
| 2026-05-03 21:57 | 26.07491 | -80.15718 | 79 ft | 12 kts | 270° |
| 2026-05-03 21:57 | 26.07492 | -80.15809 | 79 ft | 11 kts | 270° |
| 2026-05-03 21:57 | 26.07493 | -80.15894 | 79 ft | 11 kts | 270° |
| 2026-05-03 21:58 | 26.07494 | -80.15971 | 79 ft | 9 kts | 271° |
| 2026-05-03 21:58 | 26.07495 | -80.16041 | 79 ft | 9 kts | 270° |
| 2026-05-03 21:58 | 26.07495 | -80.16064 | 79 ft | 0 kts | 270° |
| 2026-05-03 22:03 | 26.07495 | -80.16090 | 79 ft | 5 kts | 270° |
| 2026-05-03 22:04 | 26.07495 | -80.16127 | 79 ft | 4 kts | 270° |
| 2026-05-03 22:04 | 26.07495 | -80.16128 | 79 ft | 0 kts | 270° |
| 2026-05-03 22:08 | 26.07495 | -80.16134 | 79 ft | 3 kts | 270° |
| 2026-05-03 22:09 | 26.07495 | -80.16154 | 79 ft | 2 kts | 270° |
| 2026-05-03 22:09 | 26.07495 | -80.16156 | 79 ft | 0 kts | 270° |
| 2026-05-03 22:10 | 26.07495 | -80.16193 | 79 ft | 5 kts | 270° |
| 2026-05-03 22:11 | 26.07495 | -80.16230 | 79 ft | 5 kts | 270° |
| 2026-05-03 22:11 | 26.07496 | -80.16252 | 79 ft | 1 kts | 270° |
| 2026-05-03 22:11 | 26.07496 | -80.16254 | 79 ft | 0 kts | 270° |
| 2026-05-03 22:13 | 26.07496 | -80.16256 | 79 ft | 0 kts | 270° |
| 2026-05-03 22:14 | 26.07496 | -80.16257 | 79 ft | 0 kts | 270° |
| 2026-05-03 22:18 | 26.07496 | -80.16274 | 79 ft | 5 kts | 270° |
| 2026-05-03 22:18 | 26.07496 | -80.16303 | 79 ft | 0 kts | 270° |
| 2026-05-03 22:20 | 26.07496 | -80.16332 | 79 ft | 5 kts | 271° |
| 2026-05-03 22:20 | 26.07497 | -80.16365 | 79 ft | 4 kts | 271° |
| 2026-05-03 22:20 | 26.07497 | -80.16378 | 79 ft | 0 kts | 270° |
| 2026-05-03 22:22 | 26.07497 | -80.16379 | 79 ft | 1 kts | 270° |
| 2026-05-03 22:22 | 26.07497 | -80.16382 | 79 ft | 0 kts | 270° |
| 2026-05-03 22:23 | 26.07497 | -80.16403 | 79 ft | 3 kts | 270° |
| 2026-05-03 22:23 | 26.07497 | -80.16424 | 79 ft | 2 kts | 270° |
| 2026-05-03 22:24 | 26.07497 | -80.16427 | 79 ft | 0 kts | 270° |
| 2026-05-03 22:24 | 26.07497 | -80.16449 | 79 ft | 3 kts | 270° |
| 2026-05-03 22:25 | 26.07498 | -80.16474 | 79 ft | 3 kts | 270° |
| 2026-05-03 22:25 | 26.07498 | -80.16481 | 79 ft | 0 kts | 270° |
| 2026-05-03 22:30 | 26.07498 | -80.16487 | 79 ft | 4 kts | 270° |
| 2026-05-03 22:31 | 26.07498 | -80.16507 | 79 ft | 0 kts | 270° |
| 2026-05-03 22:33 | 26.07497 | -80.16542 | 79 ft | 2 kts | 269° |
| 2026-05-03 22:33 | 26.07497 | -80.16543 | 79 ft | 0 kts | 269° |
| 2026-05-03 22:37 | 26.07497 | -80.16551 | 79 ft | 2 kts | 269° |
| 2026-05-03 22:37 | 26.07497 | -80.16563 | 79 ft | 2 kts | 269° |
| 2026-05-03 22:37 | 26.07497 | -80.16583 | 79 ft | 2 kts | 270° |
| 2026-05-03 22:38 | 26.07499 | -80.16599 | 79 ft | 2 kts | 285° |
| 2026-05-03 22:38 | 26.07505 | -80.16612 | 79 ft | 1 kts | 303° |
| 2026-05-03 22:38 | 26.07510 | -80.16618 | 79 ft | 1 kts | 312° |
| 2026-05-03 22:38 | 26.07520 | -80.16628 | 79 ft | 3 kts | 323° |
| 2026-05-03 22:39 | 26.07535 | -80.16637 | 79 ft | 2 kts | 336° |
| 2026-05-03 22:39 | 26.07549 | -80.16641 | 79 ft | 2 kts | 350° |
| 2026-05-03 22:39 | 26.07567 | -80.16642 | 79 ft | 3 kts | 0° |
| 2026-05-03 22:39 | 26.07579 | -80.16642 | 79 ft | 0 kts | 0° |
| 2026-05-03 22:40 | 26.07580 | -80.16642 | 79 ft | 0 kts | 0° |
| 2026-05-03 22:44 | 26.07585 | -80.16642 | 79 ft | 7 kts | 0° |
| 2026-05-03 22:45 | 26.07662 | -80.16640 | 79 ft | 11 kts | 6° |
| 2026-05-03 22:45 | 26.07690 | -80.16603 | 79 ft | 6 kts | 81° |
| 2026-05-03 22:45 | 26.07691 | -80.16577 | 79 ft | 0 kts | 88° |
| 2026-05-03 22:46 | 26.07691 | -80.16389 | 79 ft | 64 kts | 91° |
| 2026-05-03 22:47 | 26.07687 | -80.15587 | 79 ft | 141 kts | 90° |
| 2026-05-03 22:47 | 26.07676 | -80.14268 | 226 ft | 189 kts | 90° |
| 2026-05-03 22:47 | 26.07634 | -80.12780 | 1031 ft | 191 kts | 90° |
| 2026-05-03 22:47 | 26.07612 | -80.11318 | 2037 ft | 191 kts | 88° |
| 2026-05-03 22:48 | 26.07832 | -80.09818 | 2608 ft | 202 kts | 73° |
| 2026-05-03 22:48 | 26.08292 | -80.08356 | 3435 ft | 202 kts | 68° |
| 2026-05-03 22:48 | 26.09035 | -80.06924 | 3756 ft | 227 kts | 47° |
| 2026-05-03 22:48 | 26.10441 | -80.05963 | 3974 ft | 250 kts | 19° |
| 2026-05-03 22:49 | 26.12185 | -80.05641 | 4346 ft | 262 kts | 8° |
| 2026-05-03 22:49 | 26.14028 | -80.05268 | 5060 ft | 274 kts | 8° |
| 2026-05-03 22:49 | 26.15926 | -80.05257 | 6027 ft | 274 kts | 352° |
| 2026-05-03 22:49 | 26.17816 | -80.05608 | 6702 ft | 278 kts | 348° |
| 2026-05-03 22:50 | 26.19721 | -80.06108 | 6973 ft | 283 kts | 341° |
| 2026-05-03 22:50 | 26.21407 | -80.07129 | 7001 ft | 280 kts | 317° |
| 2026-05-03 22:50 | 26.22592 | -80.08814 | 7032 ft | 276 kts | 300° |
| 2026-05-03 22:50 | 26.23573 | -80.10657 | 7005 ft | 276 kts | 298° |
| 2026-05-03 22:51 | 26.24407 | -80.12572 | 7015 ft | 274 kts | 292° |
| 2026-05-03 22:51 | 26.25262 | -80.14458 | 7295 ft | 275 kts | 304° |
| 2026-05-03 22:51 | 26.26662 | -80.15956 | 8105 ft | 280 kts | 321° |
| 2026-05-03 22:51 | 26.28254 | -80.17237 | 8962 ft | 286 kts | 322° |
| 2026-05-03 22:52 | 26.29953 | -80.18433 | 9794 ft | 291 kts | 327° |
| 2026-05-03 22:52 | 26.31761 | -80.19493 | 10625 ft | 299 kts | 330° |
| 2026-05-03 22:52 | 26.33678 | -80.20539 | 11248 ft | 314 kts | 330° |
| 2026-05-03 22:52 | 26.35715 | -80.21618 | 11757 ft | 336 kts | 334° |
| 2026-05-03 22:53 | 26.38009 | -80.22451 | 12340 ft | 358 kts | 341° |
| 2026-05-03 22:53 | 26.40511 | -80.23033 | 12957 ft | 377 kts | 346° |
| 2026-05-03 22:53 | 26.43153 | -80.23446 | 13660 ft | 390 kts | 349° |
| 2026-05-03 22:53 | 26.45889 | -80.23696 | 14528 ft | 398 kts | 352° |
| 2026-05-03 22:54 | 26.48669 | -80.23914 | 15424 ft | 403 kts | 351° |
| 2026-05-03 22:54 | 26.51484 | -80.24184 | 16276 ft | 409 kts | 350° |
| 2026-05-03 22:54 | 26.54341 | -80.24483 | 17086 ft | 414 kts | 349° |
| 2026-05-03 22:54 | 26.57222 | -80.24795 | 17902 ft | 419 kts | 348° |
| 2026-05-03 22:55 | 26.60120 | -80.25222 | 18693 ft | 422 kts | 346° |
| 2026-05-03 22:55 | 26.63033 | -80.25767 | 19450 ft | 426 kts | 345° |
| 2026-05-03 22:55 | 26.65981 | -80.26313 | 20132 ft | 433 kts | 345° |
| 2026-05-03 22:55 | 26.68955 | -80.26879 | 20850 ft | 434 kts | 342° |
| 2026-05-03 22:56 | 26.71884 | -80.27702 | 21541 ft | 435 kts | 338° |
| 2026-05-03 22:56 | 26.74772 | -80.28734 | 22214 ft | 436 kts | 334° |
| 2026-05-03 22:56 | 26.77629 | -80.29910 | 22858 ft | 439 kts | 333° |
| 2026-05-03 22:56 | 26.80493 | -80.31156 | 23428 ft | 444 kts | 332° |
| 2026-05-03 22:57 | 26.83393 | -80.32396 | 24022 ft | 448 kts | 333° |
| 2026-05-03 22:57 | 26.86332 | -80.33633 | 24620 ft | 452 kts | 333° |
| 2026-05-03 22:57 | 26.89292 | -80.34874 | 25151 ft | 456 kts | 332° |
| 2026-05-03 22:57 | 26.92277 | -80.36125 | 25712 ft | 460 kts | 332° |
| 2026-05-03 22:58 | 26.95249 | -80.37370 | 26220 ft | 464 kts | 332° |
| 2026-05-03 22:58 | 26.98344 | -80.38615 | 26766 ft | 469 kts | 333° |
| 2026-05-03 22:58 | 27.01392 | -80.39828 | 27254 ft | 472 kts | 333° |
| 2026-05-03 22:58 | 27.04534 | -80.41093 | 27739 ft | 476 kts | 333° |
| 2026-05-03 22:59 | 27.07625 | -80.42341 | 28220 ft | 480 kts | 332° |
| 2026-05-03 22:59 | 27.10768 | -80.43624 | 28713 ft | 482 kts | 332° |
| 2026-05-03 22:59 | 27.13900 | -80.44982 | 29198 ft | 483 kts | 330° |
| 2026-05-03 22:59 | 27.17037 | -80.46397 | 29581 ft | 487 kts | 330° |
| 2026-05-03 23:00 | 27.20199 | -80.47818 | 29992 ft | 491 kts | 330° |
| 2026-05-03 23:00 | 27.23424 | -80.49252 | 30462 ft | 493 kts | 330° |
| 2026-05-03 23:00 | 27.26613 | -80.50666 | 31055 ft | 491 kts | 330° |
| 2026-05-03 23:00 | 27.29737 | -80.52050 | 31678 ft | 488 kts | 329° |
| 2026-05-03 23:01 | 27.32892 | -80.53447 | 32235 ft | 486 kts | 329° |
| 2026-05-03 23:01 | 27.36074 | -80.54857 | 32772 ft | 485 kts | 329° |
| 2026-05-03 23:01 | 27.39178 | -80.56208 | 33256 ft | 486 kts | 329° |
| 2026-05-03 23:01 | 27.42364 | -80.57489 | 33775 ft | 485 kts | 330° |
| 2026-05-03 23:02 | 27.45553 | -80.58722 | 34278 ft | 484 kts | 330° |
| 2026-05-03 23:02 | 27.48727 | -80.59953 | 34702 ft | 483 kts | 330° |
| 2026-05-03 23:02 | 27.51901 | -80.61198 | 35119 ft | 482 kts | 329° |
| 2026-05-03 23:02 | 27.55056 | -80.62443 | 35565 ft | 480 kts | 329° |
| 2026-05-03 23:03 | 27.58203 | -80.63693 | 35949 ft | 479 kts | 329° |
| 2026-05-03 23:03 | 27.61349 | -80.64945 | 36327 ft | 478 kts | 329° |
| 2026-05-03 23:03 | 27.64485 | -80.66196 | 36701 ft | 478 kts | 329° |
| 2026-05-03 23:03 | 27.67613 | -80.67446 | 37016 ft | 478 kts | 329° |
| 2026-05-03 23:04 | 27.70755 | -80.68695 | 37066 ft | 479 kts | 329° |
| 2026-05-03 23:04 | 27.77023 | -80.71188 | 37064 ft | 477 kts | 329° |
| 2026-05-03 23:05 | 27.83281 | -80.73688 | 37058 ft | 476 kts | 329° |
| 2026-05-03 23:05 | 27.89530 | -80.76189 | 37056 ft | 476 kts | 329° |
| 2026-05-03 23:06 | 27.95785 | -80.78697 | 37066 ft | 478 kts | 329° |
| 2026-05-03 23:06 | 28.02061 | -80.81216 | 37063 ft | 479 kts | 328° |
| 2026-05-03 23:07 | 28.08330 | -80.83737 | 37065 ft | 478 kts | 328° |
| 2026-05-03 23:07 | 28.14584 | -80.86254 | 37061 ft | 477 kts | 328° |
| 2026-05-03 23:08 | 28.20839 | -80.88775 | 37061 ft | 477 kts | 328° |
| 2026-05-03 23:08 | 28.27091 | -80.91298 | 37083 ft | 478 kts | 328° |
| 2026-05-03 23:09 | 28.33365 | -80.93833 | 37092 ft | 479 kts | 328° |
| 2026-05-03 23:09 | 28.39639 | -80.96371 | 37089 ft | 479 kts | 328° |
| 2026-05-03 23:10 | 28.45913 | -80.98913 | 37092 ft | 478 kts | 328° |
| 2026-05-03 23:10 | 28.52158 | -81.01445 | 37092 ft | 476 kts | 328° |
| 2026-05-03 23:11 | 28.58395 | -81.03978 | 37092 ft | 476 kts | 328° |
| 2026-05-03 23:11 | 28.64643 | -81.06518 | 37094 ft | 477 kts | 328° |
| 2026-05-03 23:12 | 28.70903 | -81.09067 | 37097 ft | 478 kts | 328° |
| 2026-05-03 23:12 | 28.77124 | -81.11603 | 37099 ft | 478 kts | 328° |
| 2026-05-03 23:13 | 28.83388 | -81.14159 | 37101 ft | 478 kts | 328° |
| 2026-05-03 23:13 | 28.89641 | -81.16715 | 37104 ft | 477 kts | 327° |
| 2026-05-03 23:14 | 28.95882 | -81.19268 | 37110 ft | 477 kts | 327° |
| 2026-05-03 23:14 | 29.02139 | -81.21822 | 37115 ft | 477 kts | 327° |
| 2026-05-03 23:15 | 29.08390 | -81.24386 | 37118 ft | 477 kts | 327° |
| 2026-05-03 23:15 | 29.14633 | -81.26956 | 37118 ft | 477 kts | 327° |
| 2026-05-03 23:16 | 29.20877 | -81.29528 | 37119 ft | 477 kts | 327° |
| 2026-05-03 23:16 | 29.27217 | -81.31912 | 37113 ft | 491 kts | 335° |
| 2026-05-03 23:17 | 29.34093 | -81.32864 | 37124 ft | 502 kts | 344° |
| 2026-05-03 23:17 | 29.41129 | -81.33180 | 37125 ft | 507 kts | 346° |
| 2026-05-03 23:18 | 29.48200 | -81.33533 | 37127 ft | 510 kts | 345° |
| 2026-05-03 23:18 | 29.55293 | -81.33940 | 37128 ft | 510 kts | 345° |
| 2026-05-03 23:19 | 29.62369 | -81.34357 | 37128 ft | 509 kts | 345° |
| 2026-05-03 23:19 | 29.69449 | -81.34772 | 37128 ft | 509 kts | 345° |
| 2026-05-03 23:20 | 29.76517 | -81.35195 | 37137 ft | 508 kts | 345° |
| 2026-05-03 23:20 | 29.83586 | -81.35610 | 37136 ft | 509 kts | 345° |
| 2026-05-03 23:21 | 29.90670 | -81.36034 | 37145 ft | 509 kts | 345° |
| 2026-05-03 23:21 | 29.97745 | -81.36457 | 37152 ft | 509 kts | 345° |
| 2026-05-03 23:22 | 30.08372 | -81.37093 | 37150 ft | 509 kts | 344° |
| 2026-05-03 23:22 | 30.15444 | -81.37514 | 37143 ft | 509 kts | 344° |
| 2026-05-03 23:23 | 30.22508 | -81.37926 | 37145 ft | 508 kts | 344° |
| 2026-05-03 23:23 | 30.29583 | -81.38340 | 37141 ft | 509 kts | 344° |
| 2026-05-03 23:24 | 30.36650 | -81.38756 | 37140 ft | 509 kts | 344° |
| 2026-05-03 23:24 | 30.43675 | -81.39169 | 37140 ft | 509 kts | 344° |
| 2026-05-03 23:25 | 30.50755 | -81.39566 | 37143 ft | 509 kts | 345° |
| 2026-05-03 23:25 | 30.57826 | -81.39944 | 37148 ft | 509 kts | 345° |